Time;durP1;ratioP1;P1;durP2;ratioP2;P2;SDS_P1;SDS_P2;PMS_P1;PMS_P2;Temp;Humidity;BMP_temperature;BMP_pressure;BME280_temperature;BME280_humidity;BME280_pressure;Samples;Min_cycle;Max_cycle;Signal;HPM_P1;HPM_P2
2023/03/19 00:01:54;;;;;;;33.58;12.63;;;13.20;99.90;;;;;;7410374;19;19930;-73
2023/03/19 00:04:21;;;;;;;32.42;12.43;;;13.20;99.90;;;;;;7405077;19;19919;-74
2023/03/19 00:06:47;;;;;;;30.33;11.57;;;13.20;99.90;;;;;;7406499;19;19923;-73
2023/03/19 00:09:12;;;;;;;24.98;11.02;;;13.30;99.90;;;;;;7409340;19;19930;-73
2023/03/19 00:11:38;;;;;;;27.42;11.10;;;13.30;99.90;;;;;;7408299;19;19922;-74
2023/03/19 00:14:04;;;;;;;25.50;10.63;;;13.40;99.90;;;;;;7406793;19;19937;-73
2023/03/19 00:16:30;;;;;;;25.95;11.50;;;13.40;99.90;;;;;;7405581;19;19918;-73
2023/03/19 00:18:56;;;;;;;31.77;12.13;;;13.40;99.90;;;;;;7405713;19;19922;-74
2023/03/19 00:21:22;;;;;;;26.50;10.40;;;13.50;99.90;;;;;;7401407;19;19930;-72
2023/03/19 00:23:48;;;;;;;28.73;10.65;;;13.50;99.90;;;;;;7404566;19;19918;-74
2023/03/19 00:26:14;;;;;;;31.23;11.85;;;13.60;99.90;;;;;;7405455;19;19921;-73
2023/03/19 00:28:40;;;;;;;29.90;10.43;;;13.60;99.90;;;;;;7402391;19;19911;-76
2023/03/19 00:31:12;;;;;;;32.13;11.38;;;13.60;99.90;;;;;;7403591;19;19939;-76
2023/03/19 00:33:38;;;;;;;21.52;10.55;;;13.60;99.90;;;;;;7404598;19;19914;-73
2023/03/19 00:36:05;;;;;;;26.35;9.82;;;13.60;99.90;;;;;;7404804;19;19915;-73
2023/03/19 00:38:32;;;;;;;26.35;10.95;;;13.70;99.90;;;;;;7401287;19;19915;-74
2023/03/19 00:40:57;;;;;;;29.25;10.65;;;13.70;99.90;;;;;;7403713;19;19915;-73
2023/03/19 00:43:24;;;;;;;28.75;11.15;;;13.70;99.90;;;;;;7405193;19;19997;-73
2023/03/19 00:45:50;;;;;;;29.52;10.35;;;13.60;99.90;;;;;;7400856;19;19982;-72
2023/03/19 00:48:16;;;;;;;27.52;10.43;;;13.60;99.90;;;;;;7402683;19;19927;-74
2023/03/19 00:50:43;;;;;;;26.63;11.40;;;13.60;99.90;;;;;;7384059;19;19914;-73
2023/03/19 00:53:09;;;;;;;25.92;10.65;;;13.60;99.90;;;;;;7402960;19;19927;-75
2023/03/19 00:55:35;;;;;;;31.67;11.00;;;13.70;99.90;;;;;;7404557;19;19977;-73
2023/03/19 00:58:01;;;;;;;24.35;9.50;;;13.80;99.90;;;;;;7402084;19;20019;-73
2023/03/19 01:00:27;;;;;;;27.35;10.20;;;13.80;99.90;;;;;;7401886;19;19930;-72
2023/03/19 01:02:53;;;;;;;25.02;9.13;;;13.80;99.90;;;;;;7405050;19;19926;-73
2023/03/19 01:05:19;;;;;;;26.40;10.07;;;13.80;99.90;;;;;;7403141;19;19919;-74
2023/03/19 01:07:45;;;;;;;20.33;8.82;;;13.90;99.90;;;;;;7401007;19;19935;-73
2023/03/19 01:10:11;;;;;;;26.98;9.02;;;13.90;99.90;;;;;;7400299;19;19930;-73
2023/03/19 01:12:37;;;;;;;27.40;10.70;;;13.90;99.90;;;;;;7401723;19;20280;-73
2023/03/19 01:15:04;;;;;;;26.13;9.70;;;13.90;99.90;;;;;;7402014;19;20014;-74
2023/03/19 01:17:29;;;;;;;;;;;13.90;99.90;;;;;;7407218;19;19922;-74
2023/03/19 01:19:55;;;;;;;23.45;8.63;;;13.90;99.90;;;;;;7404458;19;19926;-73
2023/03/19 01:22:22;;;;;;;20.40;7.55;;;14.00;99.90;;;;;;7400890;19;19925;-73
2023/03/19 01:24:48;;;;;;;21.75;8.23;;;13.90;99.90;;;;;;7369707;19;19978;-73
2023/03/19 01:27:14;;;;;;;20.50;7.90;;;13.90;99.90;;;;;;7402545;19;19936;-73
2023/03/19 01:29:40;;;;;;;20.52;8.18;;;14.00;99.90;;;;;;7405780;19;19939;-74
2023/03/19 01:32:06;;;;;;;20.67;8.63;;;14.00;99.90;;;;;;7401541;19;19922;-73
2023/03/19 01:34:32;;;;;;;22.83;8.45;;;14.00;99.90;;;;;;7405548;19;19914;-73
2023/03/19 01:36:58;;;;;;;20.25;7.78;;;14.00;99.90;;;;;;7404036;19;20754;-74
2023/03/19 01:39:23;;;;;;;20.75;8.10;;;14.00;99.90;;;;;;7402400;19;19914;-73
2023/03/19 01:41:50;;;;;;;22.45;7.78;;;14.00;99.90;;;;;;7403959;19;20310;-74
2023/03/19 01:44:43;;;;;;;18.00;7.70;;;13.90;99.90;;;;;;7397538;19;19966;-73
2023/03/19 01:47:29;;;;;;;20.65;8.07;;;13.90;99.90;;;;;;7400602;19;19978;-73
2023/03/19 01:49:55;;;;;;;;;;;13.80;99.90;;;;;;7407114;19;19944;-73
2023/03/19 01:52:24;;;;;;;21.73;7.93;;;13.80;99.90;;;;;;7401244;19;19918;-73
2023/03/19 01:54:52;;;;;;;23.35;7.35;;;13.80;99.90;;;;;;7405567;19;19922;-73
2023/03/19 01:57:18;;;;;;;16.77;6.53;;;13.70;99.90;;;;;;7401857;19;19934;-72
2023/03/19 01:59:47;;;;;;;22.85;7.05;;;13.70;99.90;;;;;;7403712;19;19922;-73
2023/03/19 02:02:24;;;;;;;17.35;6.43;;;13.70;99.90;;;;;;7404089;19;20410;-74
2023/03/19 02:04:55;;;;;;;21.33;7.32;;;13.70;99.90;;;;;;7404475;19;19935;-73
2023/03/19 02:07:21;;;;;;;19.80;6.38;;;13.70;99.90;;;;;;7404047;19;19915;-74
2023/03/19 02:09:47;;;;;;;26.15;6.60;;;13.70;99.90;;;;;;7402257;19;19916;-74
2023/03/19 02:12:13;;;;;;;25.48;6.65;;;13.80;99.90;;;;;;7400971;19;19926;-74
2023/03/19 02:14:39;;;;;;;18.17;6.20;;;13.80;99.90;;;;;;7403116;19;19914;-73
2023/03/19 02:17:07;;;;;;;17.77;6.10;;;13.80;99.90;;;;;;7404570;19;19922;-73
2023/03/19 02:19:42;;;;;;;18.38;6.38;;;13.80;99.90;;;;;;7403393;19;20270;-73
2023/03/19 02:22:09;;;;;;;18.85;5.70;;;13.80;99.90;;;;;;7381073;19;20377;-73
2023/03/19 02:24:40;;;;;;;19.92;6.28;;;13.70;99.90;;;;;;7402055;19;19939;-73
2023/03/19 02:27:08;;;;;;;18.70;5.75;;;13.70;99.90;;;;;;7401297;19;19918;-73
2023/03/19 02:29:34;;;;;;;23.23;6.85;;;13.80;99.90;;;;;;7401675;19;20339;-72
2023/03/19 02:32:01;;;;;;;20.75;6.47;;;13.80;99.90;;;;;;7399314;19;19926;-74
2023/03/19 02:34:27;;;;;;;;;;;13.80;99.90;;;;;;7398392;19;19939;-75
2023/03/19 02:37:08;;;;;;;21.45;5.80;;;13.90;99.90;;;;;;7401026;19;19986;-74
2023/03/19 02:39:54;;;;;;;17.40;5.72;;;13.90;99.90;;;;;;7400869;19;19919;-72
2023/03/19 02:42:22;;;;;;;16.23;6.30;;;13.90;99.90;;;;;;7399780;19;19922;-74
2023/03/19 02:44:47;;;;;;;20.25;5.30;;;13.90;99.90;;;;;;7403292;19;19910;-72
2023/03/19 02:47:14;;;;;;;18.00;5.88;;;14.00;99.90;;;;;;7399672;19;19931;-72
2023/03/19 02:49:40;;;;;;;18.65;6.05;;;14.00;99.90;;;;;;7398960;19;19999;-73
2023/03/19 02:52:06;;;;;;;20.58;6.03;;;14.00;99.90;;;;;;7400295;19;19934;-72
2023/03/19 02:54:32;;;;;;;16.63;5.18;;;14.00;99.90;;;;;;7401279;19;19922;-75
2023/03/19 02:56:58;;;;;;;20.85;5.55;;;14.00;99.90;;;;;;7397247;19;20239;-74
2023/03/19 02:59:23;;;;;;;17.23;4.90;;;14.10;99.90;;;;;;7379638;19;19918;-73
2023/03/19 03:01:49;;;;;;;18.45;5.28;;;14.00;99.90;;;;;;7402529;19;19914;-74
2023/03/19 03:04:15;;;;;;;14.18;3.75;;;14.00;99.90;;;;;;7398884;19;19939;-74
2023/03/19 03:06:42;;;;;;;16.25;4.55;;;14.00;99.90;;;;;;7403113;19;19926;-73
2023/03/19 03:09:08;;;;;;;;;;;14.00;99.90;;;;;;7399046;19;19919;-73
2023/03/19 03:11:34;;;;;;;15.13;4.13;;;13.90;99.90;;;;;;7400531;19;19918;-73
2023/03/19 03:14:00;;;;;;;15.38;3.92;;;13.90;99.90;;;;;;7399440;19;20007;-74
2023/03/19 03:16:26;;;;;;;19.70;3.97;;;13.90;99.90;;;;;;7398053;19;19934;-72
2023/03/19 03:18:52;;;;;;;17.88;5.25;;;14.00;99.90;;;;;;7400879;19;19924;-74
2023/03/19 03:21:20;;;;;;;16.75;3.85;;;14.00;99.90;;;;;;7397866;19;19928;-73
2023/03/19 03:23:47;;;;;;;12.98;4.32;;;14.00;99.90;;;;;;7404049;19;19915;-73
2023/03/19 03:26:13;;;;;;;18.83;4.15;;;14.00;99.90;;;;;;7401127;19;19974;-74
2023/03/19 03:28:40;;;;;;;18.15;4.20;;;14.00;99.90;;;;;;7403245;19;19911;-73
2023/03/19 03:31:06;;;;;;;23.40;4.40;;;14.00;99.90;;;;;;7399251;19;19919;-73
2023/03/19 03:33:32;;;;;;;14.48;3.47;;;14.00;99.90;;;;;;7402715;19;20335;-73
2023/03/19 03:35:58;;;;;;;17.40;3.75;;;13.90;99.90;;;;;;7401327;19;19921;-73
2023/03/19 03:38:25;;;;;;;14.25;3.40;;;13.90;99.90;;;;;;7401793;19;19923;-73
2023/03/19 03:40:52;;;;;;;16.13;3.53;;;13.90;99.90;;;;;;7401086;19;19978;-73
2023/03/19 03:43:20;;;;;;;15.55;3.53;;;13.80;99.90;;;;;;7399153;19;20003;-73
2023/03/19 03:45:46;;;;;;;13.57;3.05;;;13.90;99.90;;;;;;7401900;19;19921;-73
2023/03/19 03:48:15;;;;;;;13.10;3.47;;;13.90;99.90;;;;;;7396330;19;19954;-73
2023/03/19 03:50:41;;;;;;;15.00;3.65;;;13.90;99.90;;;;;;7400083;19;20216;-73
2023/03/19 03:53:08;;;;;;;20.77;4.50;;;13.90;99.90;;;;;;7399063;19;19929;-74
2023/03/19 03:55:34;;;;;;;19.30;4.03;;;13.90;99.90;;;;;;7396650;19;20015;-74
2023/03/19 03:58:01;;;;;;;13.75;3.67;;;13.90;99.90;;;;;;7399042;19;19959;-73
2023/03/19 04:00:27;;;;;;;14.65;3.83;;;14.00;99.90;;;;;;7396269;19;19919;-74
2023/03/19 04:02:53;;;;;;;15.32;4.45;;;14.00;99.90;;;;;;7400418;19;19919;-73
2023/03/19 04:05:19;;;;;;;14.25;3.95;;;13.90;99.90;;;;;;7397682;19;19938;-73
2023/03/19 04:07:46;;;;;;;16.33;4.25;;;13.90;99.90;;;;;;7396139;19;19930;-74
2023/03/19 04:10:12;;;;;;;;;;;13.90;99.90;;;;;;7401115;19;19919;-74
2023/03/19 04:12:39;;;;;;;13.55;3.97;;;14.00;99.90;;;;;;7396792;19;19926;-73
2023/03/19 04:15:08;;;;;;;13.40;3.40;;;14.00;99.90;;;;;;7397204;19;19918;-73
2023/03/19 04:17:34;;;;;;;13.32;3.28;;;14.00;99.90;;;;;;7398906;19;19990;-73
2023/03/19 04:20:03;;;;;;;13.02;3.58;;;14.00;99.90;;;;;;7398565;19;19935;-74
2023/03/19 04:22:30;;;;;;;14.73;4.35;;;13.90;99.90;;;;;;7397979;19;20008;-73
2023/03/19 04:24:56;;;;;;;15.77;3.80;;;14.00;99.90;;;;;;7396922;19;19933;-73
2023/03/19 04:27:22;;;;;;;16.02;3.90;;;13.90;99.90;;;;;;7393511;19;19953;-75
2023/03/19 04:29:48;;;;;;;16.38;3.60;;;13.90;99.90;;;;;;7400570;19;19942;-74
2023/03/19 04:32:15;;;;;;;15.27;3.45;;;13.90;99.90;;;;;;7395671;19;19929;-72
2023/03/19 04:34:41;;;;;;;;;;;13.90;99.90;;;;;;7401396;19;19915;-73
2023/03/19 04:37:09;;;;;;;11.20;3.53;;;13.90;99.90;;;;;;7404874;19;19935;-74
2023/03/19 04:39:35;;;;;;;19.58;4.43;;;13.90;99.90;;;;;;7405799;19;19942;-73
2023/03/19 04:42:02;;;;;;;14.05;4.00;;;13.90;99.90;;;;;;7402696;19;19939;-73
2023/03/19 04:44:28;;;;;;;13.82;4.25;;;13.90;99.90;;;;;;7405428;19;19919;-73
2023/03/19 04:46:54;;;;;;;21.73;3.65;;;13.90;99.90;;;;;;7404780;19;19922;-72
2023/03/19 04:49:20;;;;;;;18.15;3.95;;;13.80;99.90;;;;;;7369773;19;20267;-74
2023/03/19 04:51:46;;;;;;;14.20;3.78;;;13.80;99.90;;;;;;7401586;19;19919;-73
2023/03/19 04:54:11;;;;;;;16.38;3.85;;;13.80;99.90;;;;;;7399499;19;19937;-73
2023/03/19 04:56:38;;;;;;;14.98;3.85;;;13.70;99.90;;;;;;7406185;19;19921;-73
2023/03/19 04:59:04;;;;;;;14.23;3.40;;;13.70;99.90;;;;;;7402718;19;20331;-73
2023/03/19 05:01:30;;;;;;;15.23;3.38;;;13.60;99.90;;;;;;7403015;19;19911;-74
2023/03/19 05:03:56;;;;;;;12.23;3.78;;;13.50;99.90;;;;;;7401466;19;20247;-73
2023/03/19 05:06:21;;;;;;;16.42;4.20;;;13.50;99.90;;;;;;7404621;19;20119;-72
2023/03/19 05:08:47;;;;;;;15.20;4.20;;;13.40;99.90;;;;;;7404695;19;19915;-73
2023/03/19 05:11:13;;;;;;;13.57;3.53;;;13.40;99.90;;;;;;7403638;19;19914;-73
2023/03/19 05:13:39;;;;;;;10.80;4.13;;;13.40;99.90;;;;;;7401465;19;20335;-73
2023/03/19 05:16:05;;;;;;;13.52;4.10;;;13.30;99.90;;;;;;7376663;19;19950;-73
2023/03/19 05:18:32;;;;;;;19.55;4.47;;;13.30;99.90;;;;;;7403982;19;20387;-73
2023/03/19 05:20:58;;;;;;;21.80;4.82;;;13.20;99.90;;;;;;7404836;19;19915;-74
2023/03/19 05:23:24;;;;;;;15.55;4.22;;;13.20;99.90;;;;;;7368992;19;19916;-74
2023/03/19 05:25:50;;;;;;;11.35;4.03;;;13.20;99.90;;;;;;7384469;19;19915;-75
2023/03/19 05:28:17;;;;;;;11.35;3.30;;;13.10;99.90;;;;;;7402797;19;19914;-72
2023/03/19 05:30:43;;;;;;;11.38;3.33;;;13.10;99.90;;;;;;7401442;19;19926;-73
2023/03/19 05:33:09;;;;;;;8.52;2.00;;;13.20;99.90;;;;;;7401946;19;19925;-73
2023/03/19 05:35:36;;;;;;;8.63;1.88;;;13.10;99.90;;;;;;7403699;19;19922;-73
2023/03/19 05:38:02;;;;;;;7.97;1.08;;;13.20;99.90;;;;;;7401342;19;20358;-73
2023/03/19 05:40:28;;;;;;;5.57;1.10;;;13.10;99.90;;;;;;7400253;19;19926;-74
2023/03/19 05:42:54;;;;;;;4.97;1.05;;;13.20;99.90;;;;;;7402250;19;19915;-74
2023/03/19 05:45:19;;;;;;;5.93;1.20;;;13.20;99.90;;;;;;7400067;19;19918;-74
2023/03/19 05:47:50;;;;;;;5.90;1.13;;;13.20;99.90;;;;;;7399461;19;20252;-73
2023/03/19 05:50:17;;;;;;;4.40;0.80;;;13.20;99.90;;;;;;7398017;19;19915;-72
2023/03/19 05:52:43;;;;;;;3.92;0.77;;;13.20;99.90;;;;;;7404727;19;20003;-74
2023/03/19 05:55:09;;;;;;;3.13;0.93;;;13.30;99.90;;;;;;7400654;19;20407;-73
2023/03/19 05:57:35;;;;;;;2.30;0.60;;;13.30;99.90;;;;;;7401856;19;19926;-73
2023/03/19 06:00:02;;;;;;;2.78;0.73;;;13.30;99.90;;;;;;7406365;19;19918;-73
2023/03/19 06:02:28;;;;;;;2.25;0.70;;;13.30;99.90;;;;;;7401516;19;19951;-74
2023/03/19 06:04:54;;;;;;;4.30;0.60;;;13.30;99.90;;;;;;7402846;19;20347;-74
2023/03/19 06:07:20;;;;;;;2.47;0.68;;;13.20;99.90;;;;;;7399531;19;19925;-72
2023/03/19 06:09:45;;;;;;;3.22;0.68;;;13.20;99.90;;;;;;7401273;19;19933;-73
2023/03/19 06:12:11;;;;;;;2.40;0.55;;;13.10;99.90;;;;;;7400815;19;20006;-73
2023/03/19 06:14:37;;;;;;;2.90;0.70;;;13.10;99.90;;;;;;7399832;19;20640;-74
2023/03/19 06:17:03;;;;;;;2.08;0.52;;;13.10;99.90;;;;;;7401280;19;19918;-72
2023/03/19 06:19:29;;;;;;;4.35;0.73;;;13.10;99.90;;;;;;7370873;19;20302;-73
2023/03/19 06:21:55;;;;;;;4.82;0.65;;;13.20;99.90;;;;;;7402057;19;19931;-72
2023/03/19 06:24:21;;;;;;;1.80;0.38;;;13.20;99.90;;;;;;7401848;19;19923;-73
2023/03/19 06:26:47;;;;;;;1.77;0.50;;;13.20;99.90;;;;;;7404378;19;19926;-72
2023/03/19 06:29:13;;;;;;;2.92;0.73;;;13.20;99.90;;;;;;7400740;19;19922;-74
2023/03/19 06:31:40;;;;;;;1.98;0.60;;;13.30;99.90;;;;;;7402898;19;19922;-73
2023/03/19 06:34:07;;;;;;;2.38;0.40;;;13.30;99.90;;;;;;7402343;19;19923;-73
2023/03/19 06:36:33;;;;;;;2.47;0.80;;;13.40;99.90;;;;;;7399546;19;19911;-74
2023/03/19 06:38:58;;;;;;;3.13;0.50;;;13.50;99.90;;;;;;7400164;19;19929;-73
2023/03/19 06:41:24;;;;;;;2.10;0.43;;;13.60;99.90;;;;;;7400435;19;20335;-73
2023/03/19 06:43:50;;;;;;;3.15;0.60;;;13.60;99.90;;;;;;7401469;19;19931;-73
2023/03/19 06:46:16;;;;;;;2.10;0.35;;;13.60;99.90;;;;;;7400836;19;19915;-73
2023/03/19 06:48:41;;;;;;;3.15;0.80;;;13.70;99.90;;;;;;7401325;19;20301;-73
2023/03/19 06:51:07;;;;;;;3.60;0.63;;;13.70;99.90;;;;;;7398695;19;20361;-73
2023/03/19 06:53:33;;;;;;;3.53;0.52;;;13.80;99.90;;;;;;7401487;19;20116;-73
2023/03/19 06:56:00;;;;;;;1.25;0.30;;;13.90;99.90;;;;;;7398016;19;20540;-74
2023/03/19 06:58:26;;;;;;;3.67;0.63;;;13.80;99.60;;;;;;7394821;19;19932;-73
2023/03/19 07:00:51;;;;;;;3.13;0.52;;;13.80;99.70;;;;;;7396503;19;19911;-72
2023/03/19 07:03:17;;;;;;;1.88;0.50;;;13.80;99.70;;;;;;7396509;19;19922;-73
2023/03/19 07:05:43;;;;;;;1.42;0.63;;;13.70;99.50;;;;;;7401118;19;19915;-73
2023/03/19 07:08:11;;;;;;;2.03;0.50;;;13.70;99.70;;;;;;7399935;19;19930;-73
2023/03/19 07:10:38;;;;;;;1.75;0.60;;;13.70;99.40;;;;;;7401129;19;19938;-73
2023/03/19 07:13:04;;;;;;;2.58;0.85;;;13.80;99.50;;;;;;7397193;19;19919;-74
2023/03/19 07:15:30;;;;;;;2.58;0.60;;;13.80;99.40;;;;;;7398669;19;20413;-74
2023/03/19 07:17:56;;;;;;;2.17;0.40;;;13.90;99.20;;;;;;7404343;19;19915;-74
2023/03/19 07:20:22;;;;;;;1.63;0.43;;;13.90;99.00;;;;;;7392967;19;20765;-74
2023/03/19 07:22:53;;;;;;;1.45;0.50;;;13.90;99.00;;;;;;7396857;19;19919;-73
2023/03/19 07:25:19;;;;;;;1.35;0.30;;;13.90;99.00;;;;;;7397572;19;19918;-73
2023/03/19 07:27:45;;;;;;;2.75;0.50;;;14.00;99.10;;;;;;7398144;19;19998;-73
2023/03/19 07:30:13;;;;;;;2.70;0.73;;;14.00;99.00;;;;;;7398414;19;19911;-73
2023/03/19 07:32:39;;;;;;;1.77;0.60;;;14.10;98.90;;;;;;7400226;19;19915;-72
2023/03/19 07:35:06;;;;;;;1.25;0.40;;;13.90;99.10;;;;;;7398061;19;19947;-73
2023/03/19 07:37:32;;;;;;;1.55;0.40;;;13.90;99.20;;;;;;7368731;19;19919;-73
2023/03/19 07:39:58;;;;;;;1.88;0.55;;;14.00;99.30;;;;;;7399116;19;19931;-73
2023/03/19 07:42:24;;;;;;;4.00;0.50;;;13.90;98.90;;;;;;7364860;19;19919;-73
2023/03/19 07:44:50;;;;;;;2.30;0.65;;;13.90;99.20;;;;;;7398794;19;19926;-74
2023/03/19 07:47:16;;;;;;;2.85;0.75;;;13.90;99.10;;;;;;7395911;19;20243;-73
2023/03/19 07:49:42;;;;;;;2.05;0.70;;;13.90;99.40;;;;;;7397593;19;20235;-73
2023/03/19 07:52:08;;;;;;;2.60;0.60;;;13.90;98.90;;;;;;7395348;19;19926;-73
2023/03/19 07:54:34;;;;;;;2.25;0.70;;;13.90;98.70;;;;;;7400285;19;19918;-72
2023/03/19 07:57:00;;;;;;;1.58;0.60;;;14.00;98.80;;;;;;7402158;19;19919;-72
2023/03/19 07:59:26;;;;;;;1.90;0.50;;;14.00;99.20;;;;;;7401011;19;19923;-74
2023/03/19 08:01:52;;;;;;;3.50;0.90;;;14.10;99.20;;;;;;7403226;19;19952;-74
2023/03/19 08:04:19;;;;;;;1.63;0.50;;;14.20;99.20;;;;;;7396867;19;19974;-76
2023/03/19 08:06:44;;;;;;;2.17;0.63;;;14.20;99.30;;;;;;7400334;19;19906;-74
2023/03/19 08:09:10;;;;;;;2.47;0.50;;;14.20;99.30;;;;;;7401888;19;19923;-73
2023/03/19 08:11:36;;;;;;;4.38;0.80;;;14.10;99.30;;;;;;7405947;19;19922;-74
2023/03/19 08:14:02;;;;;;;3.28;0.80;;;14.10;99.60;;;;;;7406703;19;20252;-74
2023/03/19 08:16:28;;;;;;;5.63;1.10;;;14.10;99.60;;;;;;7379497;19;22510;-73
2023/03/19 08:18:54;;;;;;;4.22;0.80;;;14.20;99.40;;;;;;7405664;19;19978;-74
2023/03/19 08:21:20;;;;;;;5.43;1.30;;;14.20;99.30;;;;;;7404654;19;19926;-73
2023/03/19 08:23:46;;;;;;;2.08;1.02;;;14.30;99.40;;;;;;7403816;19;19918;-73
2023/03/19 08:26:11;;;;;;;3.00;0.80;;;14.40;99.30;;;;;;7405098;19;19968;-73
2023/03/19 08:28:37;;;;;;;5.07;0.70;;;14.50;99.20;;;;;;7399306;19;19918;-73
2023/03/19 08:31:11;;;;;;;2.63;0.70;;;14.60;98.90;;;;;;7402086;19;20327;-73
2023/03/19 08:33:38;;;;;;;2.65;0.65;;;14.50;98.40;;;;;;7403523;19;19926;-73
2023/03/19 08:36:09;;;;;;;3.30;0.90;;;14.60;98.10;;;;;;7404229;19;19914;-73
2023/03/19 08:38:35;;;;;;;2.75;0.80;;;14.70;98.00;;;;;;7405530;19;19922;-73
2023/03/19 08:41:05;;;;;;;2.85;0.73;;;14.70;98.20;;;;;;7400143;19;19925;-74
2023/03/19 08:43:33;;;;;;;2.53;0.70;;;15.00;97.80;;;;;;7404920;19;19946;-73
2023/03/19 08:46:00;;;;;;;3.28;0.73;;;15.10;97.30;;;;;;7402360;19;19925;-73
2023/03/19 08:48:26;;;;;;;3.30;1.00;;;15.10;97.10;;;;;;7350804;19;19999;-73
2023/03/19 08:50:58;;;;;;;3.80;0.90;;;15.50;96.90;;;;;;7403695;19;19922;-73
2023/03/19 08:53:24;;;;;;;2.38;0.70;;;15.70;96.70;;;;;;7402092;19;19923;-73
2023/03/19 08:55:57;;;;;;;2.85;0.75;;;16.50;96.10;;;;;;7406907;19;19999;-74
2023/03/19 08:58:23;;;;;;;3.03;0.80;;;18.60;93.20;;;;;;7400416;19;20059;-74
2023/03/19 09:00:49;;;;;;;2.22;0.95;;;19.50;89.20;;;;;;7404843;19;19935;-73
2023/03/19 09:03:16;;;;;;;3.53;1.20;;;18.30;90.30;;;;;;7401660;19;19914;-73
2023/03/19 09:05:43;;;;;;;3.88;1.00;;;19.30;89.50;;;;;;7404590;19;19922;-74
2023/03/19 09:08:09;;;;;;;3.28;0.82;;;18.90;86.90;;;;;;7401450;19;19917;-74
2023/03/19 09:10:35;;;;;;;3.13;1.13;;;18.10;89.90;;;;;;7404436;19;19942;-73
2023/03/19 09:13:01;;;;;;;3.42;1.05;;;19.70;88.30;;;;;;7406889;19;19918;-73
2023/03/19 09:15:27;;;;;;;1.85;0.85;;;21.00;84.60;;;;;;7400907;19;19977;-74
2023/03/19 09:17:54;;;;;;;;;;;21.50;80.20;;;;;;7408641;19;19922;-73
2023/03/19 09:20:21;;;;;;;1.90;0.82;;;22.10;79.50;;;;;;7402082;19;20003;-74
2023/03/19 09:22:47;;;;;;;2.10;0.98;;;22.40;78.10;;;;;;7402166;19;20735;-74
2023/03/19 09:25:13;;;;;;;2.60;1.38;;;22.00;78.00;;;;;;7402062;19;19926;-74
2023/03/19 09:27:39;;;;;;;14.48;5.78;;;22.30;78.40;;;;;;7402691;19;19921;-73
2023/03/19 09:30:08;;;;;;;4.22;1.85;;;22.00;77.30;;;;;;7399795;19;19919;-74
2023/03/19 09:32:34;;;;;;;3.42;0.95;;;21.60;77.20;;;;;;7402664;19;19918;-76
2023/03/19 09:35:00;;;;;;;5.00;1.63;;;21.90;77.40;;;;;;7403948;19;19946;-74
2023/03/19 09:37:26;;;;;;;2.33;1.27;;;21.20;78.40;;;;;;7394277;19;19915;-75
2023/03/19 09:39:52;;;;;;;3.70;1.02;;;21.70;75.70;;;;;;7403335;19;20465;-74
2023/03/19 09:42:39;;;;;;;3.00;1.33;;;22.70;75.30;;;;;;7399629;19;19922;-74
2023/03/19 09:45:13;;;;;;;4.47;1.25;;;23.60;73.60;;;;;;7400261;19;19922;-74
2023/03/19 09:47:40;;;;;;;2.42;1.10;;;23.10;74.10;;;;;;7404094;19;19914;-74
2023/03/19 09:50:13;;;;;;;3.38;1.05;;;21.90;75.20;;;;;;7398350;19;19926;-74
2023/03/19 09:53:00;;;;;;;4.28;1.20;;;21.90;75.40;;;;;;7403410;19;20251;-74
2023/03/19 09:55:39;;;;;;;2.42;0.93;;;21.40;74.50;;;;;;7398849;19;21041;-75
2023/03/19 09:58:19;;;;;;;3.20;1.30;;;21.10;76.60;;;;;;7397548;19;19986;-74
2023/03/19 10:00:58;;;;;;;2.60;0.85;;;20.50;77.80;;;;;;7391713;19;19915;-75
2023/03/19 10:03:49;;;;;;;2.83;0.80;;;19.80;78.90;;;;;;7390242;19;19929;-74
2023/03/19 10:06:35;;;;;;;3.08;1.02;;;18.80;81.30;;;;;;7401108;19;19918;-75
2023/03/19 10:09:24;;;;;;;2.92;0.93;;;18.60;81.60;;;;;;7403822;19;19918;-74
2023/03/19 10:12:16;;;;;;;1.45;0.70;;;17.80;83.60;;;;;;7399986;19;19910;-75
2023/03/19 10:15:00;;;;;;;3.30;0.95;;;17.80;84.90;;;;;;7403425;19;19970;-75
2023/03/19 10:17:40;;;;;;;3.10;0.90;;;17.40;86.10;;;;;;7403054;19;20354;-75
2023/03/19 10:20:35;;;;;;;2.55;0.85;;;17.90;85.30;;;;;;7400764;19;20248;-74
2023/03/19 10:23:22;;;;;;;2.78;0.73;;;18.10;84.20;;;;;;7383128;19;19922;-74
2023/03/19 10:25:53;;;;;;;3.35;1.20;;;18.00;83.80;;;;;;7374074;19;19911;-75
2023/03/19 10:28:20;;;;;;;3.58;1.08;;;18.50;84.20;;;;;;7392235;19;19919;-75
2023/03/19 10:31:10;;;;;;;3.70;1.02;;;18.30;83.50;;;;;;7341436;19;19926;-74
2023/03/19 10:33:50;;;;;;;2.58;1.00;;;18.40;83.10;;;;;;7399010;19;19929;-74
2023/03/19 10:36:21;;;;;;;2.63;1.00;;;19.00;82.00;;;;;;7399530;19;19911;-74
2023/03/19 10:38:46;;;;;;;2.92;0.80;;;18.30;82.20;;;;;;7403924;19;20335;-75
2023/03/19 10:41:20;;;;;;;3.13;1.33;;;18.80;82.10;;;;;;7398334;19;19929;-75
2023/03/19 10:43:52;;;;;;;1.58;0.73;;;18.70;81.60;;;;;;7402945;19;19926;-74
2023/03/19 10:46:18;;;;;;;2.60;1.00;;;19.60;81.10;;;;;;7377128;19;19931;-75
2023/03/19 10:48:45;;;;;;;3.50;1.00;;;19.80;79.70;;;;;;7404134;19;20361;-75
2023/03/19 10:51:32;;;;;;;2.92;1.10;;;19.50;79.90;;;;;;7403395;19;19931;-75
2023/03/19 10:54:00;;;;;;;2.95;1.08;;;19.20;81.30;;;;;;7399740;19;19903;-74
2023/03/19 10:56:30;;;;;;;2.40;0.85;;;19.40;80.60;;;;;;7404203;19;19917;-73
2023/03/19 10:59:20;;;;;;;3.20;0.93;;;19.80;79.20;;;;;;7403506;19;19918;-77
2023/03/19 11:01:47;;;;;;;2.97;0.80;;;19.70;79.70;;;;;;7401783;19;19921;-76
2023/03/19 11:04:18;;;;;;;1.98;0.77;;;20.10;78.50;;;;;;7397458;19;20266;-74
2023/03/19 11:06:49;;;;;;;2.60;0.90;;;20.20;78.50;;;;;;7402959;19;19950;-74
2023/03/19 11:09:23;;;;;;;2.58;0.82;;;19.20;79.50;;;;;;7398942;19;19915;-74
2023/03/19 11:12:23;;;;;;;3.33;0.95;;;18.80;80.60;;;;;;7401049;19;19934;-74
2023/03/19 11:15:19;;;;;;;2.53;0.75;;;19.70;78.80;;;;;;7397498;19;19922;-74
2023/03/19 11:17:59;;;;;;;2.00;1.23;;;20.20;77.70;;;;;;7400330;19;19919;-75
2023/03/19 11:20:26;;;;;;;2.22;0.85;;;19.40;78.30;;;;;;7400364;19;19942;-75
2023/03/19 11:22:53;;;;;;;;;;;19.80;78.90;;;;;;7404559;19;20348;-74
2023/03/19 11:25:26;;;;;;;1.83;0.82;;;20.00;79.10;;;;;;7398477;19;19929;-74
2023/03/19 11:28:07;;;;;;;2.53;0.80;;;20.70;77.00;;;;;;7398572;19;19931;-74
2023/03/19 11:30:39;;;;;;;2.42;1.27;;;20.00;78.50;;;;;;7401190;19;19919;-76
2023/03/19 11:33:11;;;;;;;3.33;0.98;;;19.70;78.80;;;;;;7401798;19;19922;-75
2023/03/19 11:35:45;;;;;;;4.05;1.40;;;19.70;79.50;;;;;;7376744;19;20805;-74
2023/03/19 11:38:27;;;;;;;4.30;0.95;;;19.20;80.40;;;;;;7398890;19;19927;-76
2023/03/19 11:41:22;;;;;;;3.72;1.00;;;19.30;81.80;;;;;;7400390;19;19929;-74
2023/03/19 11:44:18;;;;;;;3.17;1.02;;;19.40;80.90;;;;;;7404334;19;19942;-74
2023/03/19 11:47:23;;;;;;;6.07;1.27;;;20.30;79.40;;;;;;7405188;19;19939;-74
2023/03/19 11:50:07;;;;;;;3.88;0.88;;;19.60;81.20;;;;;;7398823;19;19914;-74
2023/03/19 11:52:55;;;;;;;4.43;1.45;;;19.70;79.30;;;;;;7404994;19;19917;-75
2023/03/19 11:55:31;;;;;;;4.65;1.35;;;20.20;80.00;;;;;;7405901;19;19928;-75
2023/03/19 11:58:16;;;;;;;4.72;1.20;;;20.60;78.70;;;;;;7408318;19;19943;-74
2023/03/19 12:00:49;;;;;;;4.68;1.63;;;20.00;79.80;;;;;;7406761;19;19978;-75
2023/03/19 12:03:30;;;;;;;6.70;1.85;;;19.20;82.40;;;;;;7405573;19;20351;-74
2023/03/19 12:06:43;;;;;;;6.57;1.95;;;20.30;81.20;;;;;;7407305;19;19919;-75
2023/03/19 12:09:15;;;;;;;5.30;1.73;;;19.50;80.30;;;;;;7382154;19;20840;-74
2023/03/19 12:12:06;;;;;;;8.98;1.52;;;19.40;82.90;;;;;;7403005;19;19922;-75
2023/03/19 12:14:31;;;;;;;;;;;18.90;83.40;;;;;;7406130;19;19910;-74
2023/03/19 12:17:03;;;;;;;7.28;2.05;;;19.90;82.80;;;;;;7406046;19;19914;-74
2023/03/19 12:20:20;;;;;;;7.40;2.22;;;20.40;81.80;;;;;;7404312;19;20428;-75
2023/03/19 12:23:34;;;;;;;4.85;1.48;;;20.40;80.70;;;;;;7402995;19;19990;-74
2023/03/19 12:26:07;;;;;;;6.38;1.80;;;19.20;81.10;;;;;;7401993;19;19926;-75
2023/03/19 12:28:48;;;;;;;6.25;2.05;;;20.40;81.50;;;;;;7405157;19;19939;-74
2023/03/19 12:31:28;;;;;;;6.63;2.28;;;20.50;81.60;;;;;;7399615;19;19978;-74
2023/03/19 12:34:15;;;;;;;8.82;2.83;;;20.70;81.10;;;;;;7385765;19;19943;-74
2023/03/19 12:36:51;;;;;;;7.75;1.98;;;20.40;81.10;;;;;;7405981;19;19915;-75
2023/03/19 12:39:30;;;;;;;7.30;1.92;;;20.00;82.70;;;;;;7400306;19;19919;-74
2023/03/19 12:41:57;;;;;;;7.95;2.10;;;19.90;81.70;;;;;;7404382;19;19930;-73
2023/03/19 12:44:36;;;;;;;6.68;1.80;;;21.20;79.60;;;;;;7400308;19;19930;-74
2023/03/19 12:47:05;;;;;;;7.35;1.98;;;20.10;80.40;;;;;;7384661;19;19950;-74
2023/03/19 12:49:35;;;;;;;6.47;1.88;;;20.50;80.50;;;;;;7402265;19;20022;-73
2023/03/19 12:52:30;;;;;;;4.82;1.33;;;20.70;79.80;;;;;;7408292;19;19935;-75
2023/03/19 12:55:03;;;;;;;4.88;1.73;;;21.10;78.00;;;;;;7403578;19;20409;-74
2023/03/19 12:57:36;;;;;;;5.00;1.52;;;20.70;77.60;;;;;;7404152;19;19953;-75